Archival Weather

Chicago O'Hare International

Chicago, Illinois (KORD)

Report from: Wednesday, January 25, 2023 5:51 AM CST
Current time: Sunday, February 5, 2023 11:34 PM CST

Current weather
Weather history
Weather forecast

Present weatherLight snow
Temperature0.0°C (32.0°F)
Wind chill-4.0°C (24.8°F)
Dew point-2.2°C (28.0°F)
Winds 7 kts (3.6 m/s, 8.1 mph) North-Northeast (20°)
Visibility0.8 mi. (1.2 km)
Clouds Ceiling: Overcast 700 ft. (213 m)
Altimeter29.82 in.Hg (1010 mB)
Precipitiation0.04 in. (1 mm)
Precip last 3 hours0.15 in. (4 mm)
Precip last 24 hours0.15 in. (4 mm)
Relative humidity85 %
Density altitude-1,636 ft. (-499 m)
Sea-level pressure101.0 kPa (1010 mB, 29.84 in.Hg)
Max temp last 6 hours0.6°C (33.1°F)
Min temp last 6 hours-0.6°C (30.9°F)
Snow depth2.00 in. (51 mm)
Remarks Automated weather observing station with precipitation discriminator
Pressure falling rapidly
Snow increasing rapidly
Pressure falling more quickly
Flight conditions Low Instrument Meteorological Conditions
Raw dataKORD 251151Z 02007KT 3/4SM R10L/P6000FT -SN OVC007 00/M02 A2982 RMK AO2 PRESFR SLP104 SNINCR 1/2 4/002 P0004 60015 70015 T00001022 10006 21006 58037
An error has occurred. This application may no longer respond until reloaded. Reload 🗙